Oriibu — JD2579 — position and weather

sailwx.info

Track history (hours):
 
Tides and Currents Weather Stations Pressure Air Temp Water Temp Dewpoint Dewpoint Depression Visibility Wind Speed Wind Dir Waves Ship Positions

Oriibu

Last reported at 2016-May-24 14:04 UTC. Time now 2016-May-25 09:12 UTC.
Position N 34°57' E 139°28'.

Length 75 m; draft 4.2 m.

MMSI: 431000426.

Date/timePositionNaut miles runAvg speedWind from/ knotsBaromVisibWave heightAir tempDewpointWater temp
2016-May-24 14:04N 34°57' E 139°28'1811.4
2016-May-24 12:30N 35°09' E 139°44'1010.7
2016-May-24 11:34N 35°19' E 139°43'1010.2
2016-May-24 10:33N 35°28' E 139°49'1111.2
2016-May-24 09:33N 35°37' E 139°58'4 3.4
2016-May-24 08:27N 35°41' E 139°58'0 0.0
2016-May-24 07:30N 35°41' E 139°58'0 0.1
2016-May-24 06:33N 35°41' E 139°58'0 0.0
2016-May-23 04:20N 35°41' E 139°58'4 4.7
2016-May-23 03:33N 35°37' E 139°58'0 0.0
2016-May-23 02:28N 35°37' E 139°58'0 0.0
2016-May-23 01:28N 35°37' E 139°58'0 0.0
2016-May-23 00:10N 35°37' E 139°58'0 0.0
2016-May-22 23:31N 35°37' E 139°58'0 0.0
2016-May-22 22:28N 35°37' E 139°58'0 0.0
2016-May-22 21:22N 35°37' E 139°58'0 0.0
2016-May-22 20:28N 35°37' E 139°58'0 0.0
2016-May-22 18:28N 35°37' E 139°58'3 3.7
2016-May-22 17:33N 35°34' E 139°56'1111.2
2016-May-22 16:33N 35°25' E 139°48'10 9.9
2016-May-22 15:33N 35°16' E 139°47'2310.3
2016-May-22 13:19N 34°57' E 139°30'228 9.0
2016-May-21 12:03N 34°08' E 134°60'15 9.6
2016-May-21 10:32N 34°23' E 135°00'1010.1
2016-May-21 09:31N 34°33' E 135°03'6 6.1
2016-May-21 08:33N 34°36' E 134°57'  
2016-May-17 04:31N 34°37' E 134°56'1010.6
2016-May-17 03:33N 34°37' E 135°08'1212.3
2016-May-17 02:33N 34°38' E 135°23'3 2.2
2016-May-17 01:22N 34°40' E 135°25'0 0.0
2016-May-17 00:28N 34°40' E 135°25'0 0.0
2016-May-16 23:16N 34°40' E 135°25'0 0.0
2016-May-16 22:16N 34°40' E 135°25'0 0.0
2016-May-16 21:28N 34°40' E 135°25'0 0.0
2016-May-16 20:28N 34°40' E 135°25'0 0.0
2016-May-16 19:22N 34°40' E 135°25'0 0.0
2016-May-16 18:28N 34°40' E 135°25'0 0.0
2016-May-16 17:22N 34°40' E 135°25'0 0.0
2016-May-16 16:28N 34°40' E 135°25'0 0.0
2016-May-16 15:28N 34°40' E 135°25'0 0.0
2016-May-16 14:28N 34°40' E 135°25'0 0.0
2016-May-16 13:16N 34°40' E 135°25'0 0.0
2016-May-16 12:28N 34°40' E 135°25'0 0.0
2016-May-16 11:28N 34°40' E 135°25'0 0.0
2016-May-16 10:04N 34°40' E 135°25'0 0.0
2016-May-16 09:22N 34°40' E 135°25'0 0.0
2016-May-16 08:22N 34°40' E 135°25'0 0.0
2016-May-16 07:28N 34°40' E 135°25'0 0.0
2016-May-16 06:28N 34°40' E 135°25'0 0.0
2016-May-16 05:28N 34°40' E 135°25'0 0.0
2016-May-16 04:28N 34°40' E 135°25'0 0.0
2016-May-16 03:28N 34°40' E 135°25'0 0.0
2016-May-16 02:28N 34°40' E 135°25'0 0.1
2016-May-16 01:33N 34°40' E 135°25'1 1.0
2016-May-16 00:33N 34°39' E 135°25'7 7.0
2016-May-15 23:33N 34°36' E 135°17'1110.6
2016-May-15 22:33N 34°35' E 135°04'1110.1
2016-May-15 21:30N 34°38' E 134°52'3 0.1
2016-May-14 22:19N 34°41' E 134°49'810.5
2016-May-14 21:33N 34°38' E 134°59'10 9.8
2016-May-14 20:32N 34°28' E 135°04'1412.8
2016-May-14 19:26N 34°15' E 134°59'  
Track history (hours):
 
Tides and Currents Weather Stations Pressure Air Temp Water Temp Dewpoint Dewpoint Depression Visibility Wind Speed Wind Dir Waves Ship Positions

Oriibu

Last reported at 2016-May-24 14:04 UTC. Time now 2016-May-25 09:12 UTC.
Position N 34°57' E 139°28'.

Length 75 m; draft 4.2 m.

MMSI: 431000426.

Date/timePositionNaut miles runAvg speedWind from/ knotsBaromVisibWave heightAir tempDewpointWater temp
2016-May-24 14:04N 34°57' E 139°28'1811.4
2016-May-24 12:30N 35°09' E 139°44'1010.7
2016-May-24 11:34N 35°19' E 139°43'1010.2
2016-May-24 10:33N 35°28' E 139°49'1111.2
2016-May-24 09:33N 35°37' E 139°58'4 3.4
2016-May-24 08:27N 35°41' E 139°58'0 0.0
2016-May-24 07:30N 35°41' E 139°58'0 0.1
2016-May-24 06:33N 35°41' E 139°58'0 0.0
2016-May-23 04:20N 35°41' E 139°58'4 4.7
2016-May-23 03:33N 35°37' E 139°58'0 0.0
2016-May-23 02:28N 35°37' E 139°58'0 0.0
2016-May-23 01:28N 35°37' E 139°58'0 0.0
2016-May-23 00:10N 35°37' E 139°58'0 0.0
2016-May-22 23:31N 35°37' E 139°58'0 0.0
2016-May-22 22:28N 35°37' E 139°58'0 0.0
2016-May-22 21:22N 35°37' E 139°58'0 0.0
2016-May-22 20:28N 35°37' E 139°58'0 0.0
2016-May-22 18:28N 35°37' E 139°58'3 3.7
2016-May-22 17:33N 35°34' E 139°56'1111.2
2016-May-22 16:33N 35°25' E 139°48'10 9.9
2016-May-22 15:33N 35°16' E 139°47'2310.3
2016-May-22 13:19N 34°57' E 139°30'228 9.0
2016-May-21 12:03N 34°08' E 134°60'15 9.6
2016-May-21 10:32N 34°23' E 135°00'1010.1
2016-May-21 09:31N 34°33' E 135°03'6 6.1
2016-May-21 08:33N 34°36' E 134°57'  
2016-May-17 04:31N 34°37' E 134°56'1010.6
2016-May-17 03:33N 34°37' E 135°08'1212.3
2016-May-17 02:33N 34°38' E 135°23'3 2.2
2016-May-17 01:22N 34°40' E 135°25'0 0.0
2016-May-17 00:28N 34°40' E 135°25'0 0.0
2016-May-16 23:16N 34°40' E 135°25'0 0.0
2016-May-16 22:16N 34°40' E 135°25'0 0.0
2016-May-16 21:28N 34°40' E 135°25'0 0.0
2016-May-16 20:28N 34°40' E 135°25'0 0.0
2016-May-16 19:22N 34°40' E 135°25'0 0.0
2016-May-16 18:28N 34°40' E 135°25'0 0.0
2016-May-16 17:22N 34°40' E 135°25'0 0.0
2016-May-16 16:28N 34°40' E 135°25'0 0.0
2016-May-16 15:28N 34°40' E 135°25'0 0.0
2016-May-16 14:28N 34°40' E 135°25'0 0.0
2016-May-16 13:16N 34°40' E 135°25'0 0.0
2016-May-16 12:28N 34°40' E 135°25'0 0.0
2016-May-16 11:28N 34°40' E 135°25'0 0.0
2016-May-16 10:04N 34°40' E 135°25'0 0.0
2016-May-16 09:22N 34°40' E 135°25'0 0.0
2016-May-16 08:22N 34°40' E 135°25'0 0.0
2016-May-16 07:28N 34°40' E 135°25'0 0.0
2016-May-16 06:28N 34°40' E 135°25'0 0.0
2016-May-16 05:28N 34°40' E 135°25'0 0.0
2016-May-16 04:28N 34°40' E 135°25'0 0.0
2016-May-16 03:28N 34°40' E 135°25'0 0.0
2016-May-16 02:28N 34°40' E 135°25'0 0.1
2016-May-16 01:33N 34°40' E 135°25'1 1.0
2016-May-16 00:33N 34°39' E 135°25'7 7.0
2016-May-15 23:33N 34°36' E 135°17'1110.6
2016-May-15 22:33N 34°35' E 135°04'1110.1
2016-May-15 21:30N 34°38' E 134°52'3 0.1
2016-May-14 22:19N 34°41' E 134°49'810.5
2016-May-14 21:33N 34°38' E 134°59'10 9.8
2016-May-14 20:32N 34°28' E 135°04'1412.8
2016-May-14 19:26N 34°15' E 134°59'  

Dump ship's entire track history